createdAt,value
2023-05-19T00:01:18.039Z,101085.31
2023-05-19T00:03:54.003Z,101075.97
2023-05-19T00:06:25.762Z,101074.66
2023-05-19T00:08:57.817Z,101074.28
2023-05-19T00:11:26.553Z,101074.19
2023-05-19T00:13:54.876Z,101063.50
2023-05-19T00:16:23.074Z,101073.91
2023-05-19T00:18:50.160Z,101064.94
2023-05-19T00:21:16.972Z,101070.72
2023-05-19T00:23:43.923Z,101073.22
2023-05-19T00:26:10.864Z,101068.06
2023-05-19T00:28:37.518Z,101071.53
2023-05-19T00:31:05.757Z,101065.66
2023-05-19T00:33:33.865Z,101056.78
2023-05-19T00:36:03.476Z,101069.59
2023-05-19T00:38:35.705Z,101059.41
2023-05-19T00:41:03.940Z,101061.09
2023-05-19T00:43:31.005Z,101065.75
2023-05-19T00:45:58.295Z,101060.88
2023-05-19T00:48:26.033Z,101066.72
2023-05-19T00:50:55.072Z,101056.06
2023-05-19T00:53:24.571Z,101066.72
2023-05-19T00:55:51.350Z,101068.50
2023-05-19T00:58:19.190Z,101073.66
2023-05-19T01:00:45.972Z,101070.38
2023-05-19T01:03:12.866Z,101070.53
2023-05-19T01:05:53.676Z,101062.38
2023-05-19T01:08:20.664Z,101073.53
2023-05-19T01:10:47.396Z,101073.66
2023-05-19T01:13:14.452Z,101076.28
2023-05-19T01:15:59.694Z,101071.72
2023-05-19T01:18:44.439Z,101066.81
2023-05-19T01:21:52.706Z,101078.06
2023-05-19T01:24:40.697Z,101067.13
2023-05-19T01:27:20.473Z,101069.88
2023-05-19T01:30:08.677Z,101070.00
2023-05-19T01:32:37.210Z,101068.47
2023-05-19T01:35:05.660Z,101071.94
2023-05-19T01:37:33.800Z,101063.16
2023-05-19T01:40:01.199Z,101065.47
2023-05-19T01:42:30.232Z,101057.31
2023-05-19T01:44:57.611Z,101067.13
2023-05-19T01:47:24.637Z,101068.47
2023-05-19T01:49:51.315Z,101059.97
2023-05-19T01:52:17.971Z,101053.38
2023-05-19T01:54:44.677Z,101054.09
2023-05-19T01:57:35.005Z,101047.16
2023-05-19T02:00:33.941Z,101037.44
2023-05-19T02:03:13.039Z,101046.66
2023-05-19T02:06:33.982Z,101040.44
2023-05-19T02:09:13.868Z,101038.41
2023-05-19T02:11:54.679Z,101037.69
2023-05-19T02:14:29.831Z,101042.56
2023-05-19T02:16:58.151Z,101037.56
2023-05-19T02:19:27.326Z,101048.41
2023-05-19T02:21:54.257Z,101038.09
2023-05-19T02:24:22.874Z,101051.50
2023-05-19T02:27:11.294Z,101046.47
2023-05-19T02:30:17.414Z,101041.06
2023-05-19T02:33:08.973Z,101042.03
2023-05-19T02:35:38.072Z,101040.50
2023-05-19T02:38:04.830Z,101040.25
2023-05-19T02:40:31.667Z,101046.00
2023-05-19T02:42:58.578Z,101039.94
2023-05-19T02:45:25.487Z,101043.38
2023-05-19T02:47:52.262Z,101045.25
2023-05-19T02:50:19.074Z,101039.00
2023-05-19T02:52:45.690Z,101044.53
2023-05-19T02:55:17.123Z,101044.31
2023-05-19T02:57:44.634Z,101045.94
2023-05-19T03:00:16.773Z,101046.41
2023-05-19T03:02:44.331Z,101050.03
2023-05-19T03:05:11.259Z,101049.72
2023-05-19T03:07:37.936Z,101055.91
2023-05-19T03:10:06.658Z,101063.09
2023-05-19T03:12:33.834Z,101056.03
2023-05-19T03:15:01.101Z,101055.69
2023-05-19T03:17:33.796Z,101068.00
2023-05-19T03:20:03.879Z,101063.72
2023-05-19T03:22:30.609Z,101054.63
2023-05-19T03:24:58.535Z,101064.78
2023-05-19T03:27:25.218Z,101066.22
2023-05-19T03:29:52.911Z,101070.56
2023-05-19T03:32:19.676Z,101063.31
2023-05-19T03:34:46.380Z,101055.31
2023-05-19T03:37:13.042Z,101067.19
2023-05-19T03:39:40.970Z,101070.31
2023-05-19T03:42:08.064Z,101066.75
2023-05-19T03:44:34.713Z,101068.28
2023-05-19T03:47:01.462Z,101063.41
2023-05-19T03:49:28.236Z,101068.50
2023-05-19T03:51:54.892Z,101065.22
2023-05-19T03:54:22.587Z,101067.44
2023-05-19T03:56:51.769Z,101078.88
2023-05-19T03:59:18.876Z,101084.72
2023-05-19T04:01:46.549Z,101078.00
2023-05-19T04:04:13.233Z,101085.03
2023-05-19T04:06:40.033Z,101093.72
2023-05-19T04:09:15.010Z,101092.44
2023-05-19T04:11:43.001Z,101076.63
2023-05-19T04:14:09.851Z,101080.25
2023-05-19T04:16:36.590Z,101065.53
2023-05-19T04:19:04.162Z,101071.34
2023-05-19T04:21:30.851Z,101061.66
2023-05-19T04:24:00.012Z,101055.91
2023-05-19T04:26:26.999Z,101057.97
2023-05-19T04:28:53.999Z,101058.59
2023-05-19T04:31:21.810Z,101046.84
2023-05-19T04:33:49.788Z,101045.16
2023-05-19T04:36:20.771Z,101039.66
2023-05-19T04:38:47.655Z,101038.81
2023-05-19T04:41:16.513Z,101033.78
2023-05-19T04:43:44.835Z,101031.88
2023-05-19T04:46:13.964Z,101028.22
2023-05-19T04:48:41.308Z,101019.03
2023-05-19T04:51:08.165Z,101027.72
2023-05-19T04:53:35.083Z,101039.94
2023-05-19T04:56:02.349Z,101045.91
2023-05-19T04:58:29.406Z,101041.41
2023-05-19T05:00:56.095Z,101042.63
2023-05-19T05:03:26.667Z,101043.22
2023-05-19T05:05:53.523Z,101033.38
2023-05-19T05:08:23.439Z,101042.69
2023-05-19T05:10:52.565Z,101046.38
2023-05-19T05:13:22.750Z,101050.63
2023-05-19T05:15:50.061Z,101049.91
2023-05-19T05:18:16.917Z,101056.63
2023-05-19T05:20:44.938Z,101057.00
2023-05-19T05:23:14.682Z,101057.28
2023-05-19T05:25:41.953Z,101067.44
2023-05-19T05:28:09.152Z,101064.13
2023-05-19T05:30:36.325Z,101063.03
2023-05-19T05:33:03.578Z,101066.88
2023-05-19T05:35:30.849Z,101056.75
2023-05-19T05:37:57.745Z,101067.41
2023-05-19T05:40:24.492Z,101054.75
2023-05-19T05:42:51.265Z,101053.66
2023-05-19T05:45:17.952Z,101052.69
2023-05-19T05:47:44.913Z,101052.44
2023-05-19T05:50:13.661Z,101057.72
2023-05-19T05:52:41.505Z,101064.06
2023-05-19T05:55:09.171Z,101065.72
2023-05-19T05:57:36.529Z,101072.78
2023-05-19T06:00:07.346Z,101071.75
2023-05-19T06:02:34.274Z,101081.91
2023-05-19T06:05:01.018Z,101081.16
2023-05-19T06:07:27.676Z,101081.22
2023-05-19T06:09:54.538Z,101080.25
2023-05-19T06:12:22.975Z,101079.78
2023-05-19T06:14:49.688Z,101075.66
2023-05-19T06:17:16.512Z,101085.91
2023-05-19T06:19:43.335Z,101084.97
2023-05-19T06:22:09.981Z,101087.44
2023-05-19T06:24:38.644Z,101079.28
2023-05-19T06:27:06.222Z,101076.09
2023-05-19T06:29:32.901Z,101077.78
2023-05-19T06:31:59.906Z,101090.63
2023-05-19T06:34:26.796Z,101086.00
2023-05-19T06:36:53.468Z,101094.13
2023-05-19T06:39:20.115Z,101089.13
2023-05-19T06:41:46.949Z,101096.47
2023-05-19T06:44:13.594Z,101099.09
2023-05-19T06:46:40.336Z,101098.25
2023-05-19T06:49:07.033Z,101106.81
2023-05-19T06:51:33.669Z,101108.78
2023-05-19T06:54:00.295Z,101101.50
2023-05-19T06:56:26.964Z,101102.22
2023-05-19T06:58:53.599Z,101096.09
2023-05-19T07:01:20.278Z,101101.00
2023-05-19T07:03:47.408Z,101103.34
2023-05-19T07:06:14.313Z,101091.03
2023-05-19T07:08:40.938Z,101095.34
2023-05-19T07:11:08.101Z,101106.38
2023-05-19T07:13:34.816Z,101103.66
2023-05-19T07:16:01.629Z,101106.66
2023-05-19T07:18:31.853Z,101104.84
2023-05-19T07:20:58.999Z,101113.28
2023-05-19T07:23:25.629Z,101112.19
2023-05-19T07:25:56.594Z,101120.13
2023-05-19T07:28:23.621Z,101115.16
2023-05-19T07:30:50.696Z,101110.16
2023-05-19T07:33:17.426Z,101116.41
2023-05-19T07:35:45.564Z,101106.97
2023-05-19T07:38:12.305Z,101112.75
2023-05-19T07:40:39.128Z,101106.00
2023-05-19T07:43:05.788Z,101116.75
2023-05-19T07:45:32.502Z,101115.56
2023-05-19T07:47:59.250Z,101112.28
2023-05-19T07:50:26.628Z,101100.00
2023-05-19T07:52:53.341Z,101106.19
2023-05-19T07:55:23.197Z,101117.91
2023-05-19T07:57:50.904Z,101108.59
2023-05-19T08:00:18.000Z,101119.94
2023-05-19T08:02:45.337Z,101119.47
2023-05-19T08:05:12.112Z,101112.91
2023-05-19T08:07:38.822Z,101107.94
2023-05-19T08:10:05.753Z,101103.38
2023-05-19T08:12:32.555Z,101109.22
2023-05-19T08:15:01.351Z,101100.84
2023-05-19T08:17:28.547Z,101106.78
2023-05-19T08:19:55.340Z,101113.91
2023-05-19T08:22:22.050Z,101114.59
2023-05-19T08:24:49.991Z,101101.69
2023-05-19T08:27:16.794Z,101096.16
2023-05-19T08:29:43.665Z,101103.66
2023-05-19T08:32:13.114Z,101100.41
2023-05-19T08:34:40.173Z,101095.94
2023-05-19T08:37:07.604Z,101098.88
2023-05-19T08:39:34.932Z,101092.75
2023-05-19T08:42:02.584Z,101092.69
2023-05-19T08:44:30.967Z,101090.78
2023-05-19T08:47:02.846Z,101089.03
2023-05-19T08:49:37.384Z,101095.75
2023-05-19T08:52:23.389Z,101091.72
2023-05-19T08:55:04.545Z,101086.66
2023-05-19T08:57:32.802Z,101081.91
2023-05-19T09:00:00.276Z,101083.13
2023-05-19T09:02:27.812Z,101084.41
2023-05-19T09:04:55.977Z,101083.25
2023-05-19T09:07:25.647Z,101074.81
2023-05-19T09:09:52.400Z,101082.41
2023-05-19T09:12:19.104Z,101079.13
2023-05-19T09:14:46.596Z,101075.19
2023-05-19T09:17:13.501Z,101075.31
2023-05-19T09:19:44.508Z,101079.91
2023-05-19T09:22:11.780Z,101079.75
2023-05-19T09:24:40.457Z,101086.25
2023-05-19T09:27:07.166Z,101076.13
2023-05-19T09:29:34.068Z,101076.22
2023-05-19T09:32:04.241Z,101082.03
2023-05-19T09:34:31.174Z,101076.16
2023-05-19T09:36:59.957Z,101065.53
2023-05-19T09:39:26.870Z,101072.66
2023-05-19T09:41:55.100Z,101065.38
2023-05-19T09:44:32.812Z,101074.38
2023-05-19T09:47:00.333Z,101066.66
2023-05-19T09:49:32.852Z,101072.63
2023-05-19T09:52:03.291Z,101074.94
2023-05-19T09:54:32.602Z,101077.28
2023-05-19T09:57:00.979Z,101079.41
2023-05-19T09:59:32.427Z,101078.78
2023-05-19T10:02:01.579Z,101060.97
2023-05-19T10:04:29.989Z,101068.28
2023-05-19T10:07:00.896Z,101071.63
2023-05-19T10:09:29.431Z,101055.78
2023-05-19T10:11:57.755Z,101062.59
2023-05-19T10:14:26.281Z,101057.09
2023-05-19T10:16:58.504Z,101060.97
2023-05-19T10:19:27.333Z,101068.56
2023-05-19T10:21:54.950Z,101064.34
2023-05-19T10:24:21.877Z,101069.19
2023-05-19T10:26:56.746Z,101053.41
2023-05-19T10:29:30.321Z,101063.56
2023-05-19T10:32:06.916Z,101052.09
2023-05-19T10:34:50.369Z,101049.53
2023-05-19T10:37:38.906Z,101054.84
2023-05-19T10:40:20.339Z,101056.44
2023-05-19T10:43:23.722Z,101054.38
2023-05-19T10:45:55.039Z,101064.97
2023-05-19T10:48:23.211Z,101075.41
2023-05-19T10:50:55.070Z,101067.31
2023-05-19T10:53:22.968Z,101064.88
2023-05-19T10:55:53.392Z,101064.44
2023-05-19T10:58:39.968Z,101059.41
2023-05-19T11:01:13.630Z,101061.50
2023-05-19T11:03:54.783Z,101064.50
2023-05-19T11:06:30.284Z,101060.34
2023-05-19T11:09:10.323Z,101069.81
2023-05-19T11:11:48.593Z,101076.22
2023-05-19T11:14:26.985Z,101079.84
2023-05-19T11:16:57.828Z,101083.19
2023-05-19T11:19:28.545Z,101091.28
2023-05-19T11:21:57.434Z,101085.00
2023-05-19T11:24:52.245Z,101095.94
2023-05-19T11:27:31.840Z,101093.75
2023-05-19T11:30:12.884Z,101095.69
2023-05-19T11:32:42.182Z,101100.44
2023-05-19T11:35:10.074Z,101096.13
2023-05-19T11:37:37.144Z,101094.31
2023-05-19T11:40:07.151Z,101096.13
2023-05-19T11:42:35.332Z,101102.38
2023-05-19T11:45:02.661Z,101094.69
2023-05-19T11:47:38.809Z,101104.63
2023-05-19T11:50:14.076Z,101098.56
2023-05-19T11:52:45.063Z,101097.47
2023-05-19T11:55:19.206Z,101098.91
2023-05-19T11:58:04.734Z,101098.78
2023-05-19T12:00:39.699Z,101099.84
2023-05-19T12:03:08.171Z,101100.00
2023-05-19T12:05:42.874Z,101096.41
2023-05-19T12:08:11.552Z,101094.25
2023-05-19T12:10:39.899Z,101094.69
2023-05-19T12:13:10.355Z,101098.13
2023-05-19T12:15:38.016Z,101095.47
2023-05-19T12:18:04.891Z,101098.91
2023-05-19T12:20:32.744Z,101091.59
2023-05-19T12:23:00.627Z,101091.44
2023-05-19T12:25:29.127Z,101081.34
2023-05-19T12:28:00.392Z,101095.69
2023-05-19T12:30:30.417Z,101083.00
2023-05-19T12:32:57.886Z,101087.72
2023-05-19T12:35:29.042Z,101085.81
2023-05-19T12:37:55.877Z,101074.53
2023-05-19T12:40:22.736Z,101084.13
2023-05-19T12:42:52.099Z,101076.50
2023-05-19T12:45:21.978Z,101071.69
2023-05-19T12:47:49.367Z,101064.19
2023-05-19T12:50:16.249Z,101074.44
2023-05-19T12:52:48.240Z,101061.78
2023-05-19T12:55:16.683Z,101070.47
2023-05-19T12:57:45.276Z,101067.22
2023-05-19T13:00:21.105Z,101065.78
2023-05-19T13:03:01.767Z,101064.88
2023-05-19T13:05:32.139Z,101075.13
2023-05-19T13:08:04.977Z,101069.66
2023-05-19T13:10:32.190Z,101071.19
2023-05-19T13:13:00.399Z,101061.84
2023-05-19T13:15:31.791Z,101068.66
2023-05-19T13:17:58.656Z,101067.16
2023-05-19T13:20:27.581Z,101057.53
2023-05-19T13:22:55.242Z,101064.72
2023-05-19T13:25:22.262Z,101061.50
2023-05-19T13:27:49.345Z,101056.19
2023-05-19T13:30:19.053Z,101053.13
2023-05-19T13:32:46.266Z,101052.31
2023-05-19T13:35:16.045Z,101048.25
2023-05-19T13:37:43.075Z,101049.13
2023-05-19T13:40:13.463Z,101050.00
2023-05-19T13:42:40.806Z,101035.66
2023-05-19T13:45:08.107Z,101041.19
2023-05-19T13:47:35.194Z,101036.75
2023-05-19T13:50:04.614Z,101044.34
2023-05-19T13:52:31.702Z,101038.13
2023-05-19T13:54:58.420Z,101044.75
2023-05-19T13:57:26.359Z,101041.63
2023-05-19T14:00:02.563Z,101038.31
2023-05-19T14:02:30.960Z,101035.63
2023-05-19T14:04:58.239Z,101027.84
2023-05-19T14:07:27.829Z,101038.13
2023-05-19T14:09:55.340Z,101030.91
2023-05-19T14:12:27.634Z,101025.91
2023-05-19T14:14:58.783Z,101022.97
2023-05-19T14:17:27.566Z,101024.16
2023-05-19T14:19:54.364Z,101024.16
2023-05-19T14:22:20.990Z,101031.44
2023-05-19T14:24:47.670Z,101029.47
2023-05-19T14:27:14.373Z,101026.94
2023-05-19T14:29:42.083Z,101020.31
2023-05-19T14:32:08.759Z,101016.47
2023-05-19T14:34:36.632Z,101015.66
2023-05-19T14:37:03.312Z,101011.50
2023-05-19T14:39:30.521Z,101015.28
2023-05-19T14:41:59.605Z,101012.00
2023-05-19T14:44:31.769Z,101008.63
2023-05-19T14:47:00.037Z,101005.44
2023-05-19T14:49:26.709Z,101010.06
2023-05-19T14:51:53.400Z,100996.00
2023-05-19T14:54:20.062Z,101003.59
2023-05-19T14:56:46.729Z,101002.53
2023-05-19T14:59:13.380Z,100993.38
2023-05-19T15:01:40.198Z,100991.47
2023-05-19T15:04:06.991Z,100990.88
2023-05-19T15:06:33.794Z,100992.94
2023-05-19T15:09:00.552Z,100987.44
2023-05-19T15:11:27.214Z,100993.28
2023-05-19T15:13:54.058Z,100985.16
2023-05-19T15:16:20.739Z,100990.97
2023-05-19T15:18:47.396Z,100983.19
2023-05-19T15:21:14.087Z,100977.94
2023-05-19T15:23:40.727Z,100988.50
2023-05-19T15:26:07.549Z,100978.75
2023-05-19T15:28:34.421Z,100986.59
2023-05-19T15:31:01.250Z,100981.56
2023-05-19T15:33:28.028Z,100986.41
2023-05-19T15:35:54.719Z,100992.75
2023-05-19T15:38:21.454Z,100982.50
2023-05-19T15:40:48.242Z,100984.19
2023-05-19T15:43:15.022Z,100982.81
2023-05-19T15:45:41.702Z,100979.44
2023-05-19T15:48:08.713Z,100989.41
2023-05-19T15:50:36.148Z,100988.28
2023-05-19T15:53:03.400Z,100986.91
2023-05-19T15:55:30.101Z,100998.84
2023-05-19T15:57:56.897Z,100989.84
2023-05-19T16:00:23.699Z,101012.44
2023-05-19T16:02:50.700Z,101013.50
2023-05-19T16:05:17.870Z,101022.91
2023-05-19T16:07:45.081Z,101034.16
2023-05-19T16:10:11.829Z,101033.69
2023-05-19T16:12:40.249Z,101049.56
2023-05-19T16:15:07.442Z,101056.81
2023-05-19T16:17:34.798Z,101052.22
2023-05-19T16:20:01.535Z,101048.59
2023-05-19T16:22:28.252Z,101048.22
2023-05-19T16:24:54.855Z,101061.81
2023-05-19T16:27:21.621Z,101054.53
2023-05-19T16:29:48.490Z,101052.69
2023-05-19T16:32:15.196Z,101049.91
2023-05-19T16:34:41.911Z,101055.69
2023-05-19T16:37:08.589Z,101057.19
2023-05-19T16:39:38.374Z,101058.38
2023-05-19T16:42:05.370Z,101057.94
2023-05-19T16:44:32.294Z,101053.53
2023-05-19T16:46:59.005Z,101056.50
2023-05-19T16:49:25.749Z,101062.59
2023-05-19T16:51:53.252Z,101060.72
2023-05-19T16:54:20.999Z,101066.78
2023-05-19T16:56:47.733Z,101059.31
2023-05-19T16:59:16.504Z,101049.94
2023-05-19T17:01:43.773Z,101057.72
2023-05-19T17:04:10.537Z,101054.28
2023-05-19T17:06:37.235Z,101052.72
2023-05-19T17:09:03.978Z,101050.78
2023-05-19T17:11:30.714Z,101043.06
2023-05-19T17:13:57.372Z,101040.03
2023-05-19T17:16:24.201Z,101049.66
2023-05-19T17:18:51.305Z,101051.56
2023-05-19T17:21:18.152Z,101047.47
2023-05-19T17:23:44.855Z,101049.06
2023-05-19T17:26:11.573Z,101049.97
2023-05-19T17:28:38.300Z,101064.91
2023-05-19T17:31:14.868Z,101063.25
2023-05-19T17:33:41.998Z,101062.53
2023-05-19T17:36:11.870Z,101067.69
2023-05-19T17:38:40.407Z,101070.00
2023-05-19T17:41:10.350Z,101060.03
2023-05-19T17:43:38.471Z,101065.59
2023-05-19T17:46:05.734Z,101068.31
2023-05-19T17:48:32.809Z,101075.38
2023-05-19T17:51:00.106Z,101070.72
2023-05-19T17:53:27.469Z,101077.56
2023-05-19T17:55:59.748Z,101081.59
2023-05-19T17:58:28.476Z,101082.25
2023-05-19T18:00:57.199Z,101085.25
2023-05-19T18:03:27.386Z,101089.53
2023-05-19T18:06:01.307Z,101089.75
2023-05-19T18:08:30.682Z,101091.97
2023-05-19T18:10:58.992Z,101091.94
2023-05-19T18:13:26.511Z,101097.28
2023-05-19T18:15:53.345Z,101088.38
2023-05-19T18:18:20.041Z,101096.38
2023-05-19T18:20:47.577Z,101097.25
2023-05-19T18:23:14.375Z,101102.88
2023-05-19T18:25:41.156Z,101105.75
2023-05-19T18:28:08.256Z,101108.97
2023-05-19T18:30:35.461Z,101105.97
2023-05-19T18:33:03.816Z,101108.88
2023-05-19T18:35:31.075Z,101104.56
2023-05-19T18:37:58.358Z,101108.19
2023-05-19T18:40:25.181Z,101117.06
2023-05-19T18:42:51.936Z,101117.78
2023-05-19T18:45:20.245Z,101115.97
2023-05-19T18:47:47.073Z,101121.16
2023-05-19T18:50:14.590Z,101126.06
2023-05-19T18:52:41.308Z,101117.91
2023-05-19T18:55:11.299Z,101113.81
2023-05-19T18:57:38.183Z,101124.50
2023-05-19T19:00:05.480Z,101127.94
2023-05-19T19:02:32.170Z,101127.94
2023-05-19T19:04:58.984Z,101129.84
2023-05-19T19:07:27.822Z,101132.97
2023-05-19T19:09:54.473Z,101133.22
2023-05-19T19:12:21.140Z,101132.97
2023-05-19T19:14:48.051Z,101130.00
2023-05-19T19:17:14.849Z,101140.69
2023-05-19T19:19:41.747Z,101140.16
2023-05-19T19:22:08.704Z,101143.66
2023-05-19T19:24:35.922Z,101135.75
2023-05-19T19:27:02.752Z,101136.72
2023-05-19T19:29:29.926Z,101142.72
2023-05-19T19:31:56.941Z,101149.91
2023-05-19T19:34:23.755Z,101144.75
2023-05-19T19:36:50.713Z,101140.91
2023-05-19T19:39:17.546Z,101154.34
2023-05-19T19:41:44.403Z,101154.94
2023-05-19T19:44:11.161Z,101158.44
2023-05-19T19:46:37.982Z,101149.69
2023-05-19T19:49:04.802Z,101163.59
2023-05-19T19:51:31.891Z,101156.03
2023-05-19T19:53:58.754Z,101161.09
2023-05-19T19:56:27.572Z,101162.88
2023-05-19T19:58:56.862Z,101167.09
2023-05-19T20:01:27.618Z,101163.47
2023-05-19T20:03:55.756Z,101164.00
2023-05-19T20:06:22.744Z,101170.94
2023-05-19T20:08:49.737Z,101169.03
2023-05-19T20:11:16.755Z,101170.56
2023-05-19T20:13:43.536Z,101175.13
2023-05-19T20:16:10.376Z,101180.53
2023-05-19T20:18:37.145Z,101171.16
2023-05-19T20:21:03.896Z,101174.41
2023-05-19T20:23:30.689Z,101174.91
2023-05-19T20:26:11.002Z,101175.47
2023-05-19T20:28:39.630Z,101177.28
2023-05-19T20:31:06.479Z,101179.03
2023-05-19T20:33:33.166Z,101183.84
2023-05-19T20:36:01.966Z,101184.09
2023-05-19T20:38:28.644Z,101186.41
2023-05-19T20:40:55.670Z,101182.88
2023-05-19T20:43:22.406Z,101176.28
2023-05-19T20:45:49.327Z,101183.13
2023-05-19T20:48:16.386Z,101181.28
2023-05-19T20:50:43.138Z,101186.69
2023-05-19T20:53:09.856Z,101185.00
2023-05-19T20:55:37.900Z,101181.03
2023-05-19T20:58:04.609Z,101167.97
2023-05-19T21:00:31.347Z,101170.00
2023-05-19T21:02:58.247Z,101173.41
2023-05-19T21:05:25.132Z,101183.56
2023-05-19T21:07:51.935Z,101183.56
2023-05-19T21:10:18.678Z,101190.28
2023-05-19T21:12:45.714Z,101193.53
2023-05-19T21:15:12.592Z,101191.59
2023-05-19T21:17:39.296Z,101203.09
2023-05-19T21:20:06.758Z,101205.34
2023-05-19T21:22:35.691Z,101203.28
2023-05-19T21:25:02.435Z,101201.84
2023-05-19T21:27:29.380Z,101205.19
2023-05-19T21:29:56.116Z,101207.00
2023-05-19T21:35:04.439Z,101208.44
2023-05-19T21:37:31.553Z,101214.78
2023-05-19T21:39:58.474Z,101197.66
2023-05-19T21:42:25.221Z,101208.91
2023-05-19T21:44:51.979Z,101204.81
2023-05-19T21:47:19.022Z,101209.75
2023-05-19T21:49:45.733Z,101216.94
2023-05-19T21:52:12.532Z,101215.13
2023-05-19T21:54:39.216Z,101209.00
2023-05-19T21:57:06.125Z,101216.53
2023-05-19T21:59:32.799Z,101219.00
2023-05-19T22:02:24.550Z,101215.09
2023-05-19T22:05:01.033Z,101216.03
2023-05-19T22:08:41.227Z,101220.56
2023-05-19T22:11:47.001Z,101215.91
2023-05-19T22:14:15.129Z,101215.69
2023-05-19T22:16:54.979Z,101207.28
2023-05-19T22:20:03.174Z,101202.69
2023-05-19T22:22:31.145Z,101213.06
2023-05-19T22:24:58.026Z,101214.69
2023-05-19T22:27:24.817Z,101217.06
2023-05-19T22:29:51.529Z,101219.66
2023-05-19T22:32:19.508Z,101221.78
2023-05-19T22:34:46.645Z,101230.31
2023-05-19T22:37:13.522Z,101231.66
2023-05-19T22:39:40.181Z,101229.03
2023-05-19T22:42:09.068Z,101241.00
2023-05-19T22:44:35.804Z,101237.28
2023-05-19T22:47:02.530Z,101243.28
2023-05-19T22:49:30.002Z,101239.56
2023-05-19T22:51:58.233Z,101243.81
2023-05-19T22:54:33.628Z,101243.25
2023-05-19T22:57:00.524Z,101238.41
2023-05-19T22:59:32.969Z,101240.78
2023-05-19T23:02:02.942Z,101244.84
2023-05-19T23:04:29.673Z,101250.59
2023-05-19T23:06:56.351Z,101244.31
2023-05-19T23:09:23.199Z,101249.81
2023-05-19T23:11:50.200Z,101250.94
2023-05-19T23:14:29.829Z,101252.63
2023-05-19T23:16:56.506Z,101236.81
2023-05-19T23:19:23.446Z,101242.53
2023-05-19T23:21:50.276Z,101252.25
2023-05-19T23:24:17.180Z,101253.31
2023-05-19T23:26:44.152Z,101249.50
2023-05-19T23:29:15.010Z,101244.66
2023-05-19T23:31:41.846Z,101253.97
2023-05-19T23:34:08.783Z,101241.97
2023-05-19T23:36:38.137Z,101240.06
2023-05-19T23:39:12.747Z,101239.63
2023-05-19T23:41:39.456Z,101244.28
2023-05-19T23:44:06.237Z,101246.59
2023-05-19T23:46:34.775Z,101249.75
2023-05-19T23:49:01.701Z,101243.66
2023-05-19T23:51:28.449Z,101247.91
2023-05-19T23:53:55.247Z,101248.72
2023-05-19T23:56:22.066Z,101246.44
2023-05-19T23:58:48.768Z,101242.22
